Time;durP1;ratioP1;P1;durP2;ratioP2;P2;SDS_P1;SDS_P2;PMS_P1;PMS_P2;Temp;Humidity;BMP_temperature;BMP_pressure;BME280_temperature;BME280_humidity;BME280_pressure;Samples;Min_cycle;Max_cycle;Signal;HPM_P1;HPM_P2
2022/09/24 00:01:10;;;;;;;8.60;3.20;;;;;;;-145.69;100.00;71579.50;5033154;28;20207;-77
2022/09/24 00:03:36;;;;;;;6.13;2.97;;;;;;;-145.69;100.00;71575.50;5033195;28;20226;-77
2022/09/24 00:06:04;;;;;;;3.70;2.50;;;;;;;-145.69;100.00;71597.41;5032910;28;20211;-76
2022/09/24 00:08:31;;;;;;;4.73;2.83;;;;;;;-145.69;100.00;71601.38;5033129;28;20215;-77
2022/09/24 00:11:01;;;;;;;4.90;3.00;;;;;;;-145.69;100.00;71613.31;5033347;28;20274;-77
2022/09/24 00:13:30;;;;;;;4.90;2.63;;;;;;;-145.69;100.00;71625.25;5033546;28;20214;-76
2022/09/24 00:15:56;;;;;;;10.73;2.90;;;;;;;-145.69;100.00;71625.25;5032826;28;20594;-77
2022/09/24 00:18:23;;;;;;;5.23;3.20;;;;;;;-145.69;100.00;71619.28;5032891;28;20227;-77
2022/09/24 00:20:49;;;;;;;5.20;3.10;;;;;;;-145.69;100.00;71589.44;5032593;28;20598;-77
2022/09/24 00:23:16;;;;;;;9.03;3.33;;;;;;;-145.69;100.00;71569.53;5033197;28;20566;-76
2022/09/24 00:28:30;;;;;;;9.63;3.57;;;;;;;-145.69;100.00;71553.63;5032734;28;20241;-77
2022/09/24 00:30:58;;;;;;;11.37;3.63;;;;;;;-145.69;100.00;71557.59;5032874;28;20227;-78
2022/09/24 00:33:25;;;;;;;5.20;2.97;;;;;;;-145.69;100.00;71549.66;5033102;28;20722;-78
2022/09/24 00:35:51;;;;;;;7.63;3.37;;;;;;;-145.69;100.00;71549.66;5033022;28;20200;-79
2022/09/24 00:38:18;;;;;;;5.80;3.30;;;;;;;-145.69;100.00;71553.63;5032918;28;20224;-78
2022/09/24 00:40:45;;;;;;;5.57;3.30;;;;;;;-145.69;100.00;71557.59;5032567;28;20234;-77
2022/09/24 00:43:26;;;;;;;5.90;3.40;;;;;;;-145.69;100.00;71575.50;5032863;28;20208;-78
2022/09/24 00:45:57;;;;;;;6.97;3.10;;;;;;;-145.69;100.00;71567.56;5036774;28;20195;-78
2022/09/24 00:48:23;;;;;;;4.47;3.10;;;;;;;-145.69;100.00;71553.63;5036850;28;20210;-77
2022/09/24 00:50:50;;;;;;;4.57;3.47;;;;;;;-145.69;100.00;71545.66;5036439;28;20535;-78
2022/09/24 00:53:20;;;;;;;6.77;3.53;;;;;;;-145.69;100.00;71539.69;5036692;28;20200;-78
2022/09/24 00:55:53;;;;;;;7.83;3.87;;;;;;;-145.69;100.00;71513.81;5036286;28;20275;-78
2022/09/24 00:58:21;;;;;;;5.10;3.30;;;;;;;-145.69;100.00;71503.88;5036501;28;20228;-77
2022/09/24 01:00:50;;;;;;;5.83;3.60;;;;;;;-145.69;100.00;71503.88;5036733;28;20223;-78
2022/09/24 01:03:20;;;;;;;8.87;3.73;;;;;;;-145.69;100.00;71495.91;5036473;28;20203;-78
2022/09/24 01:05:47;;;;;;;7.33;3.57;;;;;;;-145.69;100.00;71501.88;5036624;28;20200;-78
2022/09/24 01:08:16;;;;;;;4.73;3.40;;;;;;;-145.69;100.00;71509.84;5036119;28;20570;-77
2022/09/24 01:11:04;;;;;;;9.03;3.30;;;;;;;-145.69;100.00;71509.84;5036585;28;20214;-78
2022/09/24 01:13:50;;;;;;;3.37;2.83;;;;;;;-145.69;100.00;71513.81;5036172;28;20205;-78
2022/09/24 01:16:28;;;;;;;4.00;3.33;;;;;;;-145.69;100.00;71513.81;5036143;28;20235;-78
2022/09/24 01:19:08;;;;;;;6.60;3.30;;;;;;;-145.69;100.00;71509.84;5035886;28;20215;-79
2022/09/24 01:21:39;;;;;;;7.57;3.50;;;;;;;-145.69;100.00;71483.97;5036120;28;20210;-78
2022/09/24 01:24:29;;;;;;;11.20;3.93;;;;;;;-145.69;100.00;71454.13;5035863;28;20283;-78
2022/09/24 01:27:03;;;;;;;6.63;4.00;;;;;;;-145.69;100.00;71440.19;5035786;28;20254;-79
2022/09/24 01:29:40;;;;;;;6.37;4.10;;;;;;;-145.69;100.00;71434.22;5016355;28;20201;-78
2022/09/24 01:32:11;;;;;;;7.33;3.80;;;;;;;-145.69;100.00;71420.31;5016149;28;20728;-78
2022/09/24 01:34:42;;;;;;;10.13;3.67;;;;;;;-145.69;100.00;71416.31;5015966;28;20200;-77
2022/09/24 01:37:09;;;;;;;9.13;3.57;;;;;;;-145.69;100.00;71426.28;5016199;28;20587;-77
2022/09/24 01:39:37;;;;;;;10.27;3.93;;;;;;;-145.69;100.00;71430.25;5015904;28;20232;-78
2022/09/24 01:42:06;;;;;;;6.00;3.87;;;;;;;-145.69;100.00;71414.34;5015619;28;20216;-78
2022/09/24 01:44:38;;;;;;;7.30;3.37;;;;;;;-145.69;100.00;71418.31;5016097;28;20300;-78
2022/09/24 01:47:07;;;;;;;6.77;4.00;;;;;;;-145.69;100.00;71400.41;5015921;28;20227;-79
2022/09/24 01:49:34;;;;;;;10.07;3.87;;;;;;;-145.69;100.00;71394.44;5015889;28;20201;-79
2022/09/24 01:52:07;;;;;;;6.83;3.90;;;;;;;-145.69;100.00;71388.47;5035025;28;20558;-78
2022/09/24 01:54:37;;;;;;;9.07;4.03;;;;;;;-145.69;100.00;71386.47;5034966;28;20441;-78
2022/09/24 01:57:13;;;;;;;9.70;4.00;;;;;;;-145.69;100.00;71382.50;5035231;28;20196;-78
2022/09/24 01:59:44;;;;;;;14.07;4.00;;;;;;;-145.69;100.00;71376.53;5035064;28;20235;-78
2022/09/24 02:02:16;;;;;;;5.20;3.50;;;;;;;-145.69;100.00;71370.56;5034667;28;20658;-79
2022/09/24 02:04:47;;;;;;;10.30;4.10;;;;;;;-145.69;100.00;71378.50;5035228;28;20654;-77
2022/09/24 02:07:21;;;;;;;6.10;3.40;;;;;;;-145.69;100.00;71382.50;5035315;28;20207;-78
2022/09/24 02:09:47;;;;;;;6.20;4.00;;;;;;;-145.69;100.00;71386.47;5035092;28;20204;-78
2022/09/24 02:12:17;;;;;;;9.73;4.07;;;;;;;-145.69;100.00;71392.44;5035004;28;20204;-78
2022/09/24 02:14:48;;;;;;;7.93;4.03;;;;;;;-145.69;100.00;71376.53;5035392;28;20211;-79
2022/09/24 02:17:15;;;;;;;7.67;4.20;;;;;;;-145.69;100.00;71362.59;5034953;28;20243;-78
2022/09/24 02:19:42;;;;;;;7.80;4.40;;;;;;;-145.69;100.00;71356.63;5034470;28;20228;-78
2022/09/24 02:22:12;;;;;;;4.93;3.57;;;;;;;-145.69;100.00;71340.72;5034978;28;20200;-78
2022/09/24 02:24:48;;;;;;;16.20;4.20;;;;;;;-145.69;100.00;71334.75;5035072;28;20234;-79
2022/09/24 02:27:14;;;;;;;11.43;3.33;;;;;;;-145.69;100.00;71356.63;5035043;28;20610;-78
2022/09/24 02:29:41;;;;;;;6.67;4.00;;;;;;;-145.69;100.00;71374.53;5034706;28;20659;-79
2022/09/24 02:32:13;;;;;;;5.03;3.35;;;;;;;-145.69;100.00;71390.47;5035029;28;20208;-79
2022/09/24 02:34:46;;;;;;;8.43;3.90;;;;;;;-145.69;100.00;71390.47;5035011;28;20207;-79
2022/09/24 02:37:14;;;;;;;6.20;3.33;;;;;;;-145.69;100.00;71394.44;5034865;28;20200;-78
2022/09/24 02:39:41;;;;;;;6.77;3.60;;;;;;;-145.69;100.00;71390.47;5034850;28;20234;-79
2022/09/24 02:42:09;;;;;;;7.88;3.58;;;;;;;-145.69;100.00;71382.50;5034649;28;20196;-78
2022/09/24 02:44:37;;;;;;;6.90;3.77;;;;;;;-145.69;100.00;71372.53;5034880;28;20208;-79
2022/09/24 02:47:10;;;;;;;11.03;4.67;;;;;;;-145.69;100.00;71350.66;5034551;28;20567;-80
2022/09/24 02:49:36;;;;;;;14.13;5.40;;;;;;;-145.69;100.00;71338.72;5034052;28;20200;-79
2022/09/24 02:52:03;;;;;;;15.52;4.63;;;;;;;-145.69;100.00;71322.81;5034542;28;20200;-79
2022/09/24 02:54:30;;;;;;;6.73;4.93;;;;;;;-145.69;100.00;71324.78;5034612;28;20204;-79
2022/09/24 02:56:57;;;;;;;12.13;4.87;;;;;;;-145.69;100.00;71318.81;5034299;28;20207;-79
2022/09/24 02:59:26;;;;;;;10.63;5.20;;;;;;;-145.69;100.00;71300.91;5034499;28;20228;-79
2022/09/24 03:01:52;;;;;;;10.07;5.67;;;;;;;-145.69;100.00;71283.00;5034439;28;20200;-78
2022/09/24 03:04:20;;;;;;;9.73;5.10;;;;;;;-145.69;100.00;71285.00;5034061;28;20200;-79
2022/09/24 03:06:47;;;;;;;7.30;4.73;;;;;;;-145.69;100.00;71294.94;5033729;28;20216;-79
2022/09/24 03:09:13;;;;;;;10.95;4.20;;;;;;;-145.69;100.00;71302.91;5033801;28;20202;-79
2022/09/24 03:11:40;;;;;;;12.33;5.43;;;;;;;-145.69;100.00;71300.91;5034204;28;20208;-79
2022/09/24 03:14:07;;;;;;;10.10;5.83;;;;;;;-145.69;100.00;71300.91;5033920;28;20207;-79
2022/09/24 03:16:33;;;;;;;10.10;5.00;;;;;;;-145.69;100.00;71292.94;5033900;28;20228;-79
2022/09/24 03:19:00;;;;;;;11.73;4.97;;;;;;;-145.69;100.00;71296.94;5033757;28;20349;-78
2022/09/24 03:21:28;;;;;;;8.60;4.80;;;;;;;-145.69;100.00;71306.88;5034238;28;20207;-78
2022/09/24 03:23:54;;;;;;;8.00;4.10;;;;;;;-145.69;100.00;71318.81;5033432;28;20681;-78
2022/09/24 03:26:21;;;;;;;5.47;3.67;;;;;;;-145.69;100.00;71310.84;5034053;28;20210;-77
2022/09/24 03:28:47;;;;;;;7.57;4.15;;;;;;;-145.69;100.00;71316.84;5032578;28;20920;-78
2022/09/24 03:31:13;;;;;;;5.22;3.90;;;;;;;-145.69;100.00;71332.75;5033488;28;20200;-78
2022/09/24 03:33:42;;;;;;;9.50;4.43;;;;;;;-145.69;100.00;71326.78;5033716;28;20291;-78
2022/09/24 03:36:10;;;;;;;6.80;4.35;;;;;;;-145.69;100.00;71316.84;5033576;28;20573;-78
2022/09/24 03:38:40;;;;;;;8.75;4.88;;;;;;;-145.69;100.00;71328.78;5033755;28;20550;-79
2022/09/24 03:41:07;;;;;;;8.60;4.82;;;;;;;-145.69;100.00;71326.78;5033467;28;20235;-78
2022/09/24 03:43:35;;;;;;;8.67;4.77;;;;;;;-145.69;100.00;71322.81;5033681;28;20203;-79
2022/09/24 03:46:01;;;;;;;9.52;5.25;;;;;;;-145.69;100.00;71324.78;5033657;28;20548;-78
2022/09/24 03:48:29;;;;;;;7.70;5.03;;;;;;;-145.69;100.00;71320.81;5033284;28;20200;-79
2022/09/24 03:50:56;;;;;;;8.17;4.97;;;;;;;-145.69;100.00;71318.81;5033426;28;20239;-78
2022/09/24 03:53:25;;;;;;;9.53;5.13;;;;;;;-145.69;100.00;71316.84;5033430;28;20211;-78
2022/09/24 03:55:56;;;;;;;9.48;5.95;;;;;;;-145.69;100.00;71298.94;5033427;28;20204;-78
2022/09/24 03:58:23;;;;;;;12.07;5.57;;;;;;;-145.69;100.00;71290.97;5033074;28;20658;-78
2022/09/24 04:00:51;;;;;;;9.47;5.07;;;;;;;-145.69;100.00;71308.88;5033584;28;20234;-78
2022/09/24 04:03:18;;;;;;;8.75;4.70;;;;;;;-145.69;100.00;71318.81;5033176;28;20253;-78
2022/09/24 04:05:44;;;;;;;8.38;4.60;;;;;;;-145.69;100.00;71318.81;5033370;28;20285;-78
2022/09/24 04:08:11;;;;;;;8.27;5.13;;;;;;;-145.69;100.00;71314.84;5032455;28;20654;-78
2022/09/24 04:10:37;;;;;;;10.30;5.90;;;;;;;-145.69;100.00;71316.84;5033065;28;20243;-77
2022/09/24 04:13:05;;;;;;;11.17;5.20;;;;;;;-145.69;100.00;71314.84;5033193;28;20254;-78
2022/09/24 04:15:32;;;;;;;11.00;6.88;;;;;;;-145.69;100.00;71302.91;5031555;28;21104;-77
2022/09/24 04:17:59;;;;;;;9.40;5.57;;;;;;;-145.69;100.00;71296.94;5032453;28;20204;-77
2022/09/24 04:20:30;;;;;;;15.00;6.82;;;;;;;-145.69;100.00;71294.94;5032310;28;20232;-77
2022/09/24 04:22:58;;;;;;;10.20;5.93;;;;;;;-145.69;100.00;71283.00;5033149;28;20266;-77
2022/09/24 04:25:26;;;;;;;12.35;5.28;;;;;;;-145.69;100.00;71281.00;5033004;28;20287;-77
2022/09/24 04:27:54;;;;;;;10.52;5.65;;;;;;;-145.69;100.00;71294.94;5032620;28;20200;-78
2022/09/24 04:30:23;;;;;;;7.75;5.03;;;;;;;-145.69;100.00;71302.91;5032774;28;20211;-77
2022/09/24 04:32:50;;;;;;;8.25;4.97;;;;;;;-145.69;100.00;71310.84;5033171;28;20196;-77
2022/09/24 04:35:17;;;;;;;9.30;5.32;;;;;;;-145.69;100.00;71312.84;5032896;28;20254;-78
2022/09/24 04:37:44;;;;;;;7.32;4.80;;;;;;;-145.69;100.00;71318.81;5032984;28;20202;-78
2022/09/24 04:40:11;;;;;;;13.23;6.00;;;;;;;-145.69;100.00;71312.84;5032993;28;20240;-77
2022/09/24 04:42:38;;;;;;;8.47;5.70;;;;;;;-145.69;100.00;71314.84;5032643;28;20200;-77
2022/09/24 04:45:06;;;;;;;9.40;5.38;;;;;;;-145.69;100.00;71314.84;5032783;28;20203;-77
2022/09/24 04:47:35;;;;;;;11.18;5.82;;;;;;;-145.69;100.00;71306.88;5033060;28;20200;-78
2022/09/24 04:50:01;;;;;;;12.55;6.07;;;;;;;-145.69;100.00;71304.91;5032382;28;20545;-77
2022/09/24 04:52:28;;;;;;;11.83;6.50;;;;;;;-145.69;100.00;71308.88;5032523;28;20196;-76
2022/09/24 04:54:56;;;;;;;8.10;6.00;;;;;;;-145.69;100.00;71306.88;5032572;28;20207;-77
2022/09/24 04:57:23;;;;;;;13.33;6.70;;;;;;;-145.69;100.00;71302.91;5032682;28;20207;-77
2022/09/24 04:59:50;;;;;;;11.13;6.28;;;;;;;-145.69;100.00;71294.94;5032715;28;20232;-77
2022/09/24 05:02:17;;;;;;;12.13;6.38;;;;;;;-145.69;100.00;71294.94;5032556;28;20204;-78
2022/09/24 05:04:45;;;;;;;10.18;6.43;;;;;;;-145.69;100.00;71294.94;5032962;28;20291;-78
2022/09/24 05:07:12;;;;;;;8.35;5.68;;;;;;;-145.69;100.00;71300.91;5032662;28;20211;-77
2022/09/24 05:09:38;;;;;;;12.30;7.25;;;;;;;-145.69;100.00;71286.97;5032470;28;20208;-76
2022/09/24 05:12:05;;;;;;;12.30;6.45;;;;;;;-145.69;100.00;71288.97;5032269;28;20208;-76
2022/09/24 05:14:31;;;;;;;10.65;6.55;;;;;;;-145.69;100.00;71283.00;5032498;28;20535;-76
2022/09/24 05:16:58;;;;;;;13.23;6.73;;;;;;;-145.69;100.00;71288.97;5032401;28;20231;-77
2022/09/24 05:19:24;;;;;;;15.65;6.80;;;;;;;-145.69;100.00;71296.94;5031674;28;20192;-77
2022/09/24 05:21:52;;;;;;;13.65;7.03;;;;;;;-145.69;100.00;71294.94;5032564;28;20211;-76
2022/09/24 05:24:19;;;;;;;12.98;6.75;;;;;;;-145.69;100.00;71286.97;5032020;28;20214;-77
2022/09/24 05:29:29;;;;;;;10.27;6.93;;;;;;;-145.69;100.00;71290.97;5033436;28;20604;-76
2022/09/24 05:31:56;;;;;;;11.38;7.10;;;;;;;-145.69;100.00;71294.94;5036982;28;20196;-77
2022/09/24 05:34:22;;;;;;;10.60;7.17;;;;;;;-145.69;100.00;71294.94;5036026;28;20203;-76
2022/09/24 05:36:49;;;;;;;10.07;6.73;;;;;;;-145.69;100.00;71300.91;5035540;28;20219;-77
2022/09/24 05:39:16;;;;;;;10.82;6.25;;;;;;;-145.69;100.00;71306.88;5035604;28;20304;-76
2022/09/24 05:41:43;;;;;;;9.98;6.20;;;;;;;-145.69;100.00;71304.91;5035757;28;20804;-75
2022/09/24 05:44:10;;;;;;;10.00;5.70;;;;;;;-145.69;100.00;71302.91;5035962;28;20290;-76
2022/09/24 05:46:37;;;;;;;11.50;5.80;;;;;;;-145.69;100.00;71296.94;5035809;28;20200;-77
2022/09/24 05:49:04;;;;;;;13.25;6.40;;;;;;;-145.69;100.00;71296.94;5035373;28;20250;-77
2022/09/24 05:51:30;;;;;;;11.60;6.53;;;;;;;-145.69;100.00;71298.94;5035630;28;20200;-77
2022/09/24 05:53:57;;;;;;;14.35;6.70;;;;;;;-145.69;100.00;71298.94;5035430;28;20208;-76
2022/09/24 05:56:24;;;;;;;9.50;6.07;;;;;;;-145.69;100.00;71292.94;5035317;28;20200;-77
2022/09/24 05:58:51;;;;;;;12.20;5.93;;;;;;;-145.69;100.00;71290.97;5035882;28;20207;-75
2022/09/24 06:01:17;;;;;;;13.23;6.68;;;;;;;-145.69;100.00;71283.00;5035468;28;20267;-77
2022/09/24 06:03:44;;;;;;;8.80;5.90;;;;;;;-145.69;100.00;71283.00;5035376;28;20230;-76
2022/09/24 06:06:10;;;;;;;13.25;5.68;;;;;;;-145.69;100.00;71279.03;5035344;28;20207;-76
2022/09/24 06:08:37;;;;;;;10.52;5.93;;;;;;;-145.69;100.00;71275.03;5035558;28;20203;-76
2022/09/24 06:11:05;;;;;;;8.05;5.35;;;;;;;-145.69;100.00;71271.06;5035358;28;20207;-76
2022/09/24 06:13:33;;;;;;;9.75;6.15;;;;;;;-145.69;100.00;71275.03;5035105;28;20216;-76
2022/09/24 06:16:01;;;;;;;11.25;6.18;;;;;;;-145.69;100.00;71271.06;5034956;28;20714;-77
2022/09/24 06:18:27;;;;;;;9.50;6.00;;;;;;;-145.69;100.00;71271.06;5034352;28;20230;-76
2022/09/24 06:20:54;;;;;;;29.67;13.98;;;;;;;-145.69;100.00;71271.06;5035006;28;20247;-76
2022/09/24 06:23:21;;;;;;;20.88;11.88;;;;;;;-145.69;100.00;71275.03;5035048;28;20633;-77
2022/09/24 06:25:49;;;;;;;14.38;8.80;;;;;;;-145.69;100.00;71263.09;5034829;28;20682;-76
2022/09/24 06:28:16;;;;;;;10.88;6.63;;;;;;;-145.69;100.00;71257.13;5034799;28;20200;-76
2022/09/24 06:30:43;;;;;;;10.02;6.22;;;;;;;-145.69;100.00;71255.16;5034605;28;20227;-76
2022/09/24 06:33:12;;;;;;;8.70;5.30;;;;;;;-145.69;100.00;71251.16;5034914;28;20564;-77
2022/09/24 06:35:40;;;;;;;9.45;5.65;;;;;;;-145.69;100.00;71245.19;5035048;28;20200;-76
2022/09/24 06:38:10;;;;;;;7.43;5.43;;;;;;;-145.69;100.00;71239.22;5035103;28;20196;-76
2022/09/24 06:40:37;;;;;;;11.00;4.90;;;;;;;-145.69;100.00;71235.25;5034626;28;20227;-76
2022/09/24 06:43:04;;;;;;;8.10;4.75;;;;;;;-145.69;100.00;71237.25;5033586;28;20203;-77
2022/09/24 06:45:31;;;;;;;6.32;4.63;;;;;;;-145.69;100.00;71231.28;5034797;28;20212;-76
2022/09/24 06:48:01;;;;;;;8.13;5.22;;;;;;;-145.69;100.00;71239.22;5034281;28;20196;-76
2022/09/24 06:50:30;;;;;;;9.80;5.35;;;;;;;-145.69;100.00;71237.25;5034462;28;20226;-76
2022/09/24 06:52:57;;;;;;;8.73;4.45;;;;;;;-145.69;100.00;71245.19;5034613;28;20656;-77
2022/09/24 06:55:24;;;;;;;8.40;4.80;;;;;;;-145.69;100.00;71251.16;5034530;28;20203;-78
2022/09/24 06:57:50;;;;;;;6.28;4.70;;;;;;;-145.69;100.00;71245.19;5034298;28;20211;-76
2022/09/24 07:00:17;;;;;;;6.53;4.30;;;;;;;-145.69;100.00;71239.22;5034210;28;20230;-76
2022/09/24 07:02:43;;;;;;;5.78;4.03;;;;;;;-145.69;100.00;71239.22;5034376;28;20226;-77
2022/09/24 07:05:13;;;;;;;6.45;4.35;;;;;;;-145.69;100.00;71235.25;5034340;28;20204;-76
2022/09/24 07:07:40;;;;;;;19.42;16.08;;;;;;;-145.69;100.00;71231.28;5034113;28;20650;-76
2022/09/24 07:10:08;;;;;;;6.78;4.88;;;;;;;-145.69;100.00;71245.19;5034134;28;20239;-77
2022/09/24 07:12:35;;;;;;;9.57;7.07;;;;;;;-145.69;100.00;71247.19;5034140;28;20200;-76
2022/09/24 07:15:03;;;;;;;7.55;4.05;;;;;;;-145.69;100.00;71249.19;5033838;28;20231;-76
2022/09/24 07:17:29;;;;;;;5.32;3.70;;;;;;;-145.69;100.00;71247.19;5033420;28;20220;-76
2022/09/24 07:19:56;;;;;;;6.25;3.47;;;;;;;-145.69;100.00;71243.22;5034108;28;20287;-76
2022/09/24 07:22:24;;;;;;;8.68;3.83;;;;;;;-145.69;100.00;71239.22;5033843;28;20227;-77
2022/09/24 07:24:51;;;;;;;6.55;4.32;;;;;;;-145.69;100.00;71241.22;5033862;28;20567;-76
2022/09/24 07:27:18;;;;;;;6.75;4.53;;;;;;;-145.69;100.00;71257.13;5033554;28;20476;-77
2022/09/24 07:29:44;;;;;;;5.30;3.53;;;;;;;-145.69;100.00;71253.16;5033489;28;20210;-76
2022/09/24 07:32:11;;;;;;;3.78;2.65;;;;;;;-145.69;100.00;71251.16;5033888;28;20559;-77
2022/09/24 07:34:37;;;;;;;3.58;2.10;;;;;;;-145.69;100.00;71263.09;5033572;28;20223;-76
2022/09/24 07:37:04;;;;;;;9.52;4.10;;;;;;;-145.69;100.00;71271.06;5033585;28;20676;-76
2022/09/24 07:39:33;;;;;;;12.50;4.55;;;;;;;-145.69;100.00;71271.06;5033672;28;20208;-77
2022/09/24 07:42:00;;;;;;;10.68;4.95;;;;;;;-145.69;100.00;71267.09;5033247;28;20231;-76
2022/09/24 07:44:30;;;;;;;17.27;7.15;;;;;;;-145.69;100.00;71273.06;5033710;28;20204;-77
2022/09/24 07:46:57;;;;;;;9.95;5.57;;;;;;;-145.69;100.00;71263.09;5033420;28;20227;-76
2022/09/24 07:49:23;;;;;;;8.88;4.40;;;;;;;-145.69;100.00;71263.09;5033607;28;20258;-76
2022/09/24 07:51:50;;;;;;;6.10;3.58;;;;;;;-145.69;100.00;71253.16;5033562;28;20204;-76
2022/09/24 07:54:16;;;;;;;6.28;3.42;;;;;;;-145.69;100.00;71245.19;5033135;28;20211;-76
2022/09/24 07:56:44;;;;;;;9.38;3.75;;;;;;;-145.69;100.00;71229.28;5033125;28;20200;-76
2022/09/24 07:59:11;;;;;;;7.15;3.63;;;;;;;-145.69;100.00;71211.38;5033515;28;20196;-76
2022/09/24 08:01:38;;;;;;;18.40;3.78;;;;;;;-145.69;100.00;71199.44;5030188;28;20477;-77
2022/09/24 08:04:06;;;;;;;6.55;2.90;;;;;;;-145.69;100.00;71201.41;5022542;28;20238;-77
2022/09/24 08:06:34;;;;;;;4.13;2.30;;;;;;;-145.69;100.00;71203.41;5033127;28;20306;-77
2022/09/24 08:09:01;;;;;;;8.15;3.25;;;;;;;-145.69;100.00;71189.47;5033064;28;20200;-77
2022/09/24 08:11:28;;;;;;;5.90;2.53;;;;;;;-145.69;100.00;71183.50;5033387;28;20200;-75
2022/09/24 08:13:57;;;;;;;4.20;2.33;;;;;;;-145.69;100.00;71201.41;5033284;28;20235;-76
2022/09/24 08:16:27;;;;;;;3.63;2.40;;;;;;;-145.69;100.00;71195.47;5032394;28;20807;-76
2022/09/24 08:18:54;;;;;;;3.03;2.08;;;;;;;-145.69;100.00;71179.53;5032942;28;20262;-76
2022/09/24 08:21:21;;;;;;;5.82;2.63;;;;;;;-145.69;100.00;71167.59;5032919;28;20334;-76
2022/09/24 08:23:47;;;;;;;2.70;2.00;;;;;;;-145.69;100.00;71151.69;5032885;28;20226;-76
2022/09/24 08:26:14;;;;;;;3.97;2.28;;;;;;;-145.69;100.00;71139.75;5033083;28;20207;-76
2022/09/24 08:28:41;;;;;;;7.85;2.17;;;;;;;-145.69;100.00;71151.69;5033075;28;20208;-76
2022/09/24 08:31:15;;;;;;;3.70;2.28;;;;;;;-145.69;100.00;71137.75;5032921;28;20299;-75
2022/09/24 08:33:42;;;;;;;2.97;1.92;;;;;;;-145.69;100.00;71123.81;5032857;28;20203;-76
2022/09/24 08:36:10;;;;;;;4.70;2.20;;;;;;;-145.69;100.00;71103.94;5032655;28;20200;-76
2022/09/24 08:38:36;;;;;;;3.30;1.90;;;;;;;-145.69;100.00;71092.00;5032606;28;20200;-76
2022/09/24 08:41:17;;;;;;;6.40;2.42;;;;;;;-145.69;100.00;71072.09;5032994;28;20258;-76
2022/09/24 08:43:54;;;;;;;3.13;1.85;;;;;;;-145.69;100.00;71074.09;5032696;28;20204;-76
2022/09/24 08:49:29;;;;;;;3.03;1.80;;;;;;;-145.69;100.00;71058.16;5008448;28;20330;-76
2022/09/24 08:52:05;;;;;;;4.88;1.85;;;;;;;-145.69;100.00;71038.25;5032723;28;20294;-74
2022/09/24 08:54:35;;;;;;;3.20;2.00;;;;;;;-145.69;100.00;71018.38;5032489;28;20676;-76
2022/09/24 08:57:10;;;;;;;1.80;1.60;;;;;;;-145.69;100.00;70976.59;5032343;28;20734;-76
2022/09/24 08:59:39;;;;;;;2.03;1.75;;;;;;;-145.69;100.00;70968.63;5032727;28;20223;-76
2022/09/24 09:02:28;;;;;;;2.45;1.60;;;;;;;-145.69;100.00;70968.63;5032458;28;20230;-77
2022/09/24 09:05:03;;;;;;;4.43;2.08;;;;;;;-145.69;100.00;70980.56;5033383;28;20700;-76
2022/09/24 09:07:43;;;;;;;2.80;1.55;;;;;;;-145.69;100.00;71008.41;5036485;28;20207;-77
2022/09/24 09:10:14;;;;;;;6.15;1.85;;;;;;;-145.69;100.00;71004.44;5036467;28;20196;-76
2022/09/24 09:12:46;;;;;;;2.10;1.77;;;;;;;-145.69;100.00;71012.41;5036502;28;20204;-76
2022/09/24 09:15:24;;;;;;;2.75;1.85;;;;;;;-145.69;100.00;71004.44;5035173;28;20336;-77
2022/09/24 09:17:57;;;;;;;3.15;1.92;;;;;;;-145.69;100.00;70980.56;5027844;28;20717;-76
2022/09/24 09:20:30;;;;;;;2.80;1.45;;;;;;;-145.69;100.00;70992.50;5036057;28;20218;-76
2022/09/24 09:23:03;;;;;;;3.88;2.00;;;;;;;-145.69;100.00;71004.44;5036305;28;20239;-76
2022/09/24 09:25:35;;;;;;;3.45;1.85;;;;;;;-145.69;100.00;70992.50;5036223;28;20222;-76
2022/09/24 09:28:14;;;;;;;2.65;1.70;;;;;;;-145.69;100.00;70974.59;5036198;28;20661;-76
2022/09/24 09:30:59;;;;;;;2.78;1.70;;;;;;;-145.69;100.00;70972.59;5035836;28;20200;-76
2022/09/24 09:33:45;;;;;;;2.13;1.55;;;;;;;-145.69;100.00;70956.69;5036173;28;20208;-76
2022/09/24 09:36:31;;;;;;;2.00;1.70;;;;;;;-145.69;100.00;70968.63;5035640;28;20283;-75
2022/09/24 09:39:04;;;;;;;1.85;1.48;;;;;;;-145.69;100.00;70960.66;5035849;28;20307;-77
2022/09/24 09:41:36;;;;;;;4.65;2.05;;;;;;;-145.69;100.00;70978.56;5035995;28;20228;-76
2022/09/24 09:44:13;;;;;;;2.58;1.70;;;;;;;-145.69;100.00;70972.59;5035022;28;20200;-75
2022/09/24 09:46:45;;;;;;;2.80;1.77;;;;;;;-145.69;100.00;70984.53;5035932;28;20296;-76
2022/09/24 09:49:14;;;;;;;2.50;1.80;;;;;;;-145.69;100.00;70994.50;5035394;28;20204;-76
2022/09/24 09:51:42;;;;;;;4.35;1.60;;;;;;;-145.69;100.00;70964.66;5035348;28;20204;-76
2022/09/24 09:54:13;;;;;;;2.17;1.65;;;;;;;-145.69;100.00;70902.97;5035734;28;20715;-76
2022/09/24 09:56:47;;;;;;;2.78;1.65;;;;;;;-145.69;100.00;70845.28;5035685;28;20283;-76
2022/09/24 09:59:20;;;;;;;4.93;2.42;;;;;;;-145.69;100.00;70843.28;5035571;28;20199;-75
2022/09/24 10:01:54;;;;;;;4.78;2.40;;;;;;;-145.69;100.00;70803.50;5035253;28;20747;-75
2022/09/24 10:04:33;;;;;;;3.22;1.80;;;;;;;-145.69;100.00;70753.75;5035228;28;20551;-76
2022/09/24 10:07:08;;;;;;;3.17;1.92;;;;;;;-145.69;100.00;70767.69;5035004;28;20207;-76
2022/09/24 10:09:36;;;;;;;3.35;1.90;;;;;;;-145.69;100.00;70783.59;5035436;28;20238;-76
2022/09/24 10:12:14;;;;;;;2.20;1.50;;;;;;;-145.69;100.00;70765.69;5035268;28;20321;-76
2022/09/24 10:14:41;;;;;;;1.75;1.40;;;;;;;-145.69;100.00;70763.69;5035202;28;20196;-76
2022/09/24 10:17:13;;;;;;;4.57;1.83;;;;;;;-145.69;100.00;70793.53;5033387;28;20728;-75
2022/09/24 10:19:44;;;;;;;3.25;1.90;;;;;;;-145.69;100.00;70747.78;5034690;28;20618;-76
2022/09/24 10:22:20;;;;;;;6.63;1.95;;;;;;;-145.69;100.00;70789.56;5035008;28;20724;-75
2022/09/24 10:24:58;;;;;;;8.05;1.90;;;;;;;-145.69;100.00;70829.34;5035349;28;20192;-76
2022/09/24 10:27:34;;;;;;;9.73;5.95;;;;;;;-145.69;100.00;70765.69;5035116;28;20420;-76
2022/09/24 10:32:48;;;;;;;6.40;3.67;;;;;;;-145.69;100.00;70811.44;5035015;28;20198;-75
2022/09/24 10:35:25;;;;;;;5.10;3.08;;;;;;;-145.69;100.00;70777.63;5035110;28;20204;-75
2022/09/24 10:37:57;;;;;;;2.25;1.80;;;;;;;-145.69;100.00;70809.47;5034984;28;20286;-77
2022/09/24 10:40:29;;;;;;;4.97;1.95;;;;;;;-145.69;100.00;70825.38;5034834;28;20196;-77
2022/09/24 10:42:58;;;;;;;3.63;1.95;;;;;;;-145.69;100.00;70737.84;5034294;28;20227;-77
2022/09/24 10:45:42;;;;;;;2.50;1.70;;;;;;;-145.69;100.00;70773.66;5034282;28;20200;-76
2022/09/24 10:48:17;;;;;;;3.50;2.03;;;;;;;-145.69;100.00;70779.63;5034867;28;20204;-77
2022/09/24 10:50:55;;;;;;;3.35;2.35;;;;;;;-145.69;100.00;70825.38;5020692;28;20283;-78
2022/09/24 10:53:37;;;;;;;2.13;1.63;;;;;;;-145.69;100.00;70817.41;5021530;28;20334;-76
2022/09/24 10:56:14;;;;;;;3.17;1.80;;;;;;;-145.69;100.00;70785.59;5026521;28;20219;-77
2022/09/24 10:59:06;;;;;;;5.93;1.58;;;;;;;-145.69;100.00;70749.78;5024675;28;20189;-76
2022/09/24 11:01:47;;;;;;;7.15;2.42;;;;;;;-145.69;100.00;70825.38;5023407;28;20221;-76
2022/09/24 11:04:26;;;;;;;9.60;2.75;;;;;;;-145.69;100.00;70813.44;5023429;28;20203;-76
2022/09/24 11:07:20;;;;;;;4.68;2.40;;;;;;;-145.69;100.00;70769.66;5017389;28;20225;-76
2022/09/24 11:09:54;;;;;;;3.72;1.95;;;;;;;-145.69;100.00;70668.19;5013161;28;20435;-76
2022/09/24 11:12:29;;;;;;;2.60;1.80;;;;;;;-145.69;100.00;70662.22;5014331;28;20275;-76
2022/09/24 11:15:13;;;;;;;2.28;1.60;;;;;;;-145.69;100.00;70618.47;5032889;28;20291;-76
2022/09/24 11:17:47;;;;;;;3.05;1.98;;;;;;;-145.69;100.00;70642.34;5033917;28;20562;-77
2022/09/24 11:20:35;;;;;;;2.60;1.55;;;;;;;-145.69;100.00;70713.97;5033919;28;20199;-75
2022/09/24 11:23:35;;;;;;;5.03;1.65;;;;;;;-145.69;100.00;70761.72;5033585;28;20231;-75
2022/09/24 11:26:13;;;;;;;2.20;1.65;;;;;;;-145.69;100.00;70743.81;5033878;28;20296;-75
2022/09/24 11:29:06;;;;;;;3.15;1.70;;;;;;;-145.69;100.00;70698.03;5033449;28;20625;-75
2022/09/24 11:31:40;;;;;;;2.20;1.55;;;;;;;-145.69;100.00;70741.81;5033955;28;20212;-77